Foxfire, North Carolina
Current Conditions -  °F | °C
As of 3:55 PM on Tuesday 25 Nov 2014 (Local Time) from KSOP Reporting Station
Overcast Overcast  
Wind Chill: 57°   Ceiling: 1800
Heat Index: 57°   Visibility: 10mi
Dew Point:   Wind: 0mph
Humidity: 11%   Direction: NA
Pressure: 30.04"   Gusts: NA
Location:  35.2008°N, 79.6471°W
Report Text: KSOP 252055Z AUTO 00000KT 10SM OVC018 14/M16 A3004 RMK AO1 52010
Loading
Personal Weather Stations






























Interactive Weather Map New forecast layout! Learn more

10-Day Weather Forecast

Advertisements
Track Severe Weather on mobile